createdAt,value
2016-10-31T00:15:46.959Z,1007.61
2016-10-31T00:16:57.352Z,1007.6
2016-10-31T00:18:07.743Z,1007.63
2016-10-31T00:19:18.141Z,1007.57
2016-10-31T00:20:28.537Z,1007.58
2016-10-31T00:21:38.929Z,1007.62
2016-10-31T01:15:41.449Z,0
2016-10-31T01:16:51.804Z,0
2016-10-31T01:18:02.153Z,0
2016-10-31T01:20:22.858Z,0
2016-10-31T02:15:36.614Z,0
2016-10-31T02:16:46.952Z,0
2016-10-31T02:17:57.298Z,0
2016-10-31T02:19:07.647Z,0
2016-10-31T02:20:17.995Z,0
2016-10-31T02:21:28.345Z,0
2016-10-31T04:15:26.999Z,1006.74
2016-10-31T04:16:37.386Z,1006.8
2016-10-31T04:17:47.782Z,1006.78
2016-10-31T04:18:58.175Z,1006.78
2016-10-31T04:20:08.572Z,1006.77
2016-10-31T04:21:18.968Z,1006.85
2016-10-31T04:22:29.362Z,1006.82
2016-10-31T04:23:39.758Z,1006.84
2016-10-31T05:15:29.181Z,0
2016-10-31T05:16:39.528Z,0
2016-10-31T05:17:49.860Z,0
2016-10-31T05:19:00.208Z,0
2016-10-31T05:20:10.556Z,0
2016-10-31T05:21:20.915Z,0
2016-10-31T06:15:08.413Z,1007.1
2016-10-31T06:16:18.816Z,1007.09
2016-10-31T06:17:29.211Z,1007.15
2016-10-31T06:18:39.611Z,1007.11
2016-10-31T06:19:50.002Z,1007.12
2016-10-31T06:21:00.398Z,1007.13
2016-10-31T06:22:10.797Z,1007.13
2016-10-31T06:23:21.194Z,1007.1
2016-10-31T06:24:31.592Z,1007.07
2016-10-31T06:25:41.989Z,1007.03
2016-10-31T06:26:52.379Z,1007.07
2016-10-31T06:28:02.785Z,1007.09
2016-10-31T06:29:13.186Z,1007.12
2016-10-31T07:15:36.768Z,0
2016-10-31T07:17:37.350Z,0
2016-10-31T07:18:47.723Z,0
2016-10-31T07:19:58.056Z,0
2016-10-31T08:16:46.499Z,0
2016-10-31T08:17:56.844Z,0
2016-10-31T08:19:07.190Z,0
2016-10-31T08:20:17.573Z,0
2016-10-31T09:15:32.891Z,1006.93
2016-10-31T09:16:43.287Z,1006.9
2016-10-31T09:17:53.679Z,1006.92
2016-10-31T09:19:04.081Z,1006.92
2016-10-31T09:20:14.476Z,1006.88
2016-10-31T09:21:24.875Z,1006.87
2016-10-31T09:22:35.274Z,1006.88
2016-10-31T10:15:29.556Z,0
2016-10-31T10:16:39.903Z,0
2016-10-31T10:17:50.254Z,0
2016-10-31T10:19:00.602Z,0
2016-10-31T11:15:35.514Z,1006.01
2016-10-31T11:16:45.914Z,1005.99
2016-10-31T11:17:56.305Z,1005.93
2016-10-31T11:19:06.704Z,1005.98
2016-10-31T11:20:17.098Z,1005.95
2016-10-31T11:21:27.498Z,1005.92
2016-10-31T11:22:37.898Z,1005.92
2016-10-31T11:23:48.306Z,1005.91
2016-10-31T11:24:58.705Z,1005.95
2016-10-31T11:26:09.110Z,1005.98
2016-10-31T11:27:19.506Z,1005.92
2016-10-31T11:28:29.909Z,1005.93
2016-10-31T11:29:40.303Z,1005.96
2016-10-31T11:30:50.712Z,1005.92
2016-10-31T11:32:01.105Z,1005.92
2016-10-31T11:33:11.506Z,1005.87
2016-10-31T11:34:21.903Z,1005.86
2016-10-31T11:35:32.306Z,1005.83
2016-10-31T11:36:42.705Z,1005.85
2016-10-31T11:37:53.108Z,1005.8
2016-10-31T11:39:03.511Z,1005.81
2016-10-31T11:40:13.911Z,1005.76
2016-10-31T11:41:24.315Z,1005.79
2016-10-31T11:42:34.708Z,1005.76
2016-10-31T11:43:45.111Z,1005.73
2016-10-31T11:44:55.514Z,1005.71
2016-10-31T11:46:05.916Z,1005.74
2016-10-31T11:47:16.315Z,1005.71
2016-10-31T11:48:26.714Z,1005.71
2016-10-31T11:49:37.114Z,1005.71
2016-10-31T12:15:27.248Z,0
2016-10-31T12:16:37.597Z,0
2016-10-31T12:17:47.941Z,0
2016-10-31T12:18:58.290Z,0
2016-10-31T13:15:52.562Z,1005.11
2016-10-31T13:17:02.951Z,1005.1
2016-10-31T13:18:13.345Z,1005.04
2016-10-31T13:19:23.736Z,1005.03
2016-10-31T13:20:34.131Z,1005
2016-10-31T13:21:44.527Z,1005.04
2016-10-31T13:22:54.927Z,1005.07
2016-10-31T13:24:05.324Z,1005.06
2016-10-31T13:25:15.726Z,1005.08
2016-10-31T13:26:26.124Z,1005.04
2016-10-31T13:27:36.526Z,1005.09
2016-10-31T14:15:59.099Z,1004.89
2016-10-31T15:16:04.653Z,0
2016-10-31T15:16:54.889Z,0
2016-10-31T15:18:05.225Z,0
2016-10-31T16:16:03.265Z,1004.58
2016-10-31T16:17:13.660Z,1004.6
2016-10-31T16:18:24.044Z,1004.57
2016-10-31T16:19:34.437Z,1004.55
2016-10-31T16:20:44.830Z,1004.54
2016-10-31T16:21:55.239Z,1004.53
2016-10-31T17:16:02.412Z,1004.64
2016-10-31T17:17:12.810Z,1004.71
2016-10-31T17:18:23.206Z,1004.65
2016-10-31T17:19:13.689Z,1004.66
2016-10-31T17:20:24.081Z,1004.64
2016-10-31T17:21:34.479Z,1004.66
2016-10-31T17:22:44.875Z,1004.65
2016-10-31T17:23:55.270Z,1004.6
2016-10-31T17:25:05.668Z,1004.61
2016-10-31T17:26:16.068Z,1004.57
2016-10-31T17:27:26.464Z,1004.54
2016-10-31T17:28:36.864Z,1004.51
2016-10-31T17:29:47.262Z,1004.54
2016-10-31T17:30:57.659Z,1004.53
2016-10-31T17:32:08.058Z,1004.51
2016-10-31T17:32:58.547Z,1004.51
2016-10-31T17:34:08.948Z,1004.49
2016-10-31T17:35:19.345Z,1004.5
2016-10-31T17:36:29.749Z,1004.51
2016-10-31T17:37:40.157Z,1004.53
2016-10-31T17:38:50.554Z,1004.52
2016-10-31T17:40:00.940Z,1004.5
2016-10-31T17:41:11.353Z,1004.48
2016-10-31T17:42:21.753Z,1004.44
2016-10-31T18:15:52.971Z,1004.5
2016-10-31T18:17:03.227Z,1004.56
2016-10-31T19:16:07.022Z,1004.65
2016-10-31T19:17:18.095Z,1004.65
2016-10-31T22:15:58.804Z,1004.18
2016-10-31T22:17:09.192Z,1004.18
2016-10-31T22:18:19.588Z,1004.17
2016-10-31T22:19:29.975Z,1004.14
2016-10-31T22:20:40.360Z,1004.21
2016-10-31T22:21:50.770Z,1004.13
2016-10-31T22:23:01.169Z,1004.13
2016-10-31T22:24:11.566Z,1004.12
2016-10-31T22:25:21.967Z,1004.09
2016-10-31T22:26:32.364Z,1004.08
2016-10-31T22:27:42.762Z,1004.07
2016-10-31T22:28:53.183Z,1004.07
2016-10-31T22:30:03.540Z,1004.07
2016-10-31T23:16:08.439Z,1003.64
2016-10-31T23:17:18.810Z,1003.69
2016-10-31T23:18:29.200Z,1003.67
2016-10-31T23:19:39.608Z,1003.71
2016-10-31T23:20:49.993Z,1003.65
2016-10-31T23:22:00.397Z,1003.66
2016-10-31T23:23:10.799Z,1003.69
